createdAt,value
2023-11-29T00:01:30.061Z,52.54
2023-11-29T00:03:58.470Z,52.72
2023-11-29T00:06:26.878Z,52.54
2023-11-29T00:08:58.644Z,52.87
2023-11-29T00:11:28.048Z,52.56
2023-11-29T00:13:56.451Z,52.57
2023-11-29T00:16:27.150Z,52.73
2023-11-29T00:18:55.649Z,52.85
2023-11-29T00:21:24.059Z,52.96
2023-11-29T00:23:55.273Z,52.81
2023-11-29T00:26:25.398Z,52.94
2023-11-29T00:28:54.430Z,52.55
2023-11-29T00:31:22.850Z,52.90
2023-11-29T00:33:51.189Z,52.56
2023-11-29T00:36:19.728Z,52.88
2023-11-29T00:38:48.064Z,52.62
2023-11-29T00:41:16.421Z,52.62
2023-11-29T00:43:48.764Z,52.77
2023-11-29T00:46:17.142Z,52.71
2023-11-29T00:48:45.540Z,52.85
2023-11-29T00:51:13.815Z,52.84
2023-11-29T00:53:42.300Z,52.70
2023-11-29T00:56:11.375Z,52.87
2023-11-29T00:58:39.773Z,52.77
2023-11-29T01:01:10.082Z,52.73
2023-11-29T01:03:38.603Z,52.85
2023-11-29T01:06:08.309Z,52.83
2023-11-29T01:08:36.770Z,53.00
2023-11-29T01:11:06.600Z,52.89
2023-11-29T01:13:34.967Z,52.93
2023-11-29T01:16:12.787Z,52.91
2023-11-29T01:18:43.904Z,52.99
2023-11-29T01:21:17.128Z,53.05
2023-11-29T01:23:47.888Z,53.24
2023-11-29T01:26:16.298Z,53.32
2023-11-29T01:28:44.696Z,53.20
2023-11-29T01:31:14.976Z,53.17
2023-11-29T01:33:46.472Z,53.39
2023-11-29T01:36:15.491Z,53.25
2023-11-29T01:38:43.782Z,53.32
2023-11-29T01:41:12.143Z,53.57
2023-11-29T01:43:40.555Z,53.14
2023-11-29T01:46:08.911Z,53.28
2023-11-29T01:48:38.964Z,53.21
2023-11-29T01:51:09.070Z,53.37
2023-11-29T01:53:39.987Z,53.37
2023-11-29T01:56:10.157Z,53.06
2023-11-29T01:58:38.530Z,52.98
2023-11-29T02:01:09.629Z,52.95
2023-11-29T02:03:39.765Z,53.13
2023-11-29T02:06:09.824Z,53.18
2023-11-29T02:08:39.140Z,52.85
2023-11-29T02:11:08.812Z,53.06
2023-11-29T02:13:37.155Z,52.95
2023-11-29T02:16:06.470Z,52.84
2023-11-29T02:18:34.926Z,52.65
2023-11-29T02:21:04.878Z,52.78
2023-11-29T02:23:40.765Z,52.57
2023-11-29T02:26:10.536Z,52.46
2023-11-29T02:28:38.916Z,52.49
2023-11-29T02:31:07.286Z,52.25
2023-11-29T02:33:35.658Z,52.16
2023-11-29T02:36:09.682Z,52.15
2023-11-29T02:38:38.016Z,52.65
2023-11-29T02:41:06.875Z,52.28
2023-11-29T02:43:36.811Z,52.34
2023-11-29T02:46:05.371Z,52.31
2023-11-29T02:48:36.574Z,52.53
2023-11-29T02:51:05.195Z,52.83
2023-11-29T02:53:34.149Z,52.94
2023-11-29T02:56:02.444Z,52.90
2023-11-29T02:58:30.777Z,53.03
2023-11-29T03:01:00.563Z,53.19
2023-11-29T03:03:28.912Z,53.38
2023-11-29T03:05:59.957Z,53.44
2023-11-29T03:08:28.454Z,53.37
2023-11-29T03:10:57.055Z,53.39
2023-11-29T03:13:28.911Z,53.46
2023-11-29T03:15:57.439Z,53.71
2023-11-29T03:18:27.215Z,53.64
2023-11-29T03:20:55.686Z,53.85
2023-11-29T03:23:24.227Z,53.86
2023-11-29T03:25:52.665Z,53.68
2023-11-29T03:28:20.948Z,53.72
2023-11-29T03:30:49.353Z,53.88
2023-11-29T03:33:18.020Z,54.08
2023-11-29T03:35:47.867Z,53.97
2023-11-29T03:38:16.279Z,54.20
2023-11-29T03:40:44.855Z,54.18
2023-11-29T03:43:14.036Z,53.95
2023-11-29T03:45:42.732Z,53.97
2023-11-29T03:48:11.243Z,54.25
2023-11-29T03:50:39.600Z,54.02
2023-11-29T03:53:09.305Z,54.09
2023-11-29T03:55:37.651Z,54.02
2023-11-29T03:58:08.734Z,53.98
2023-11-29T04:00:37.156Z,53.86
2023-11-29T04:03:05.704Z,53.88
2023-11-29T04:05:37.217Z,53.86
2023-11-29T04:08:10.016Z,53.82
2023-11-29T04:10:41.334Z,53.70
2023-11-29T04:13:09.657Z,53.73
2023-11-29T04:15:37.986Z,53.92
2023-11-29T04:18:06.719Z,53.68
2023-11-29T04:20:35.539Z,53.64
2023-11-29T04:23:15.182Z,53.71
2023-11-29T04:25:46.334Z,53.87
2023-11-29T04:28:14.740Z,53.73
2023-11-29T04:30:43.864Z,53.88
2023-11-29T04:33:15.129Z,53.93
2023-11-29T04:35:43.561Z,53.76
2023-11-29T04:38:16.933Z,53.66
2023-11-29T04:40:45.606Z,53.79
2023-11-29T04:43:14.101Z,53.52
2023-11-29T04:45:42.420Z,53.75
2023-11-29T04:48:10.801Z,53.75
2023-11-29T04:50:39.143Z,53.64
2023-11-29T04:53:07.427Z,53.75
2023-11-29T04:55:37.137Z,53.69
2023-11-29T04:58:05.419Z,53.54
2023-11-29T05:00:34.225Z,53.04
2023-11-29T05:03:08.230Z,53.01
2023-11-29T05:05:37.100Z,53.08
2023-11-29T05:08:05.740Z,53.05
2023-11-29T05:10:34.097Z,52.55
2023-11-29T05:13:03.939Z,52.88
2023-11-29T05:15:34.430Z,52.73
2023-11-29T05:18:03.586Z,52.64
2023-11-29T05:20:32.141Z,52.65
2023-11-29T05:23:00.693Z,52.70
2023-11-29T05:25:29.101Z,52.49
2023-11-29T05:27:57.432Z,52.67
2023-11-29T05:30:27.048Z,52.50
2023-11-29T05:32:55.636Z,52.78
2023-11-29T05:35:24.190Z,52.49
2023-11-29T05:37:52.517Z,52.45
2023-11-29T05:40:21.993Z,52.25
2023-11-29T05:42:50.660Z,52.33
2023-11-29T05:45:19.981Z,52.54
2023-11-29T05:47:49.876Z,52.45
2023-11-29T05:50:18.551Z,52.27
2023-11-29T05:52:47.184Z,52.57
2023-11-29T05:55:16.842Z,52.38
2023-11-29T05:57:46.593Z,52.31
2023-11-29T06:00:24.630Z,52.55
2023-11-29T06:03:02.180Z,52.30
2023-11-29T06:05:31.551Z,52.48
2023-11-29T06:08:00.355Z,52.57
2023-11-29T06:10:28.969Z,52.82
2023-11-29T06:12:57.555Z,52.60
2023-11-29T06:15:26.713Z,52.94
2023-11-29T06:17:58.585Z,52.83
2023-11-29T06:20:29.253Z,52.68
2023-11-29T06:22:58.582Z,52.94
2023-11-29T06:25:27.053Z,52.84
2023-11-29T06:27:55.471Z,52.96
2023-11-29T06:30:23.876Z,52.82
2023-11-29T06:32:52.292Z,52.88
2023-11-29T06:35:21.413Z,52.58
2023-11-29T06:37:56.875Z,52.68
2023-11-29T06:40:28.851Z,52.57
2023-11-29T06:42:57.176Z,52.50
2023-11-29T06:45:26.430Z,52.72
2023-11-29T06:47:55.407Z,52.54
2023-11-29T06:50:23.860Z,52.54
2023-11-29T06:52:53.726Z,52.43
2023-11-29T06:55:22.045Z,52.50
2023-11-29T06:57:51.763Z,52.49
2023-11-29T07:00:22.840Z,52.31
2023-11-29T07:02:51.557Z,52.57
2023-11-29T07:05:20.279Z,52.38
2023-11-29T07:07:50.285Z,52.35
2023-11-29T07:10:22.810Z,52.26
2023-11-29T07:12:51.129Z,52.46
2023-11-29T07:15:19.438Z,52.59
2023-11-29T07:17:48.002Z,52.58
2023-11-29T07:20:16.733Z,52.28
2023-11-29T07:22:45.232Z,52.33
2023-11-29T07:25:14.899Z,52.51
2023-11-29T07:27:44.774Z,52.54
2023-11-29T07:30:13.744Z,52.44
2023-11-29T07:32:42.185Z,52.51
2023-11-29T07:35:11.135Z,52.57
2023-11-29T07:37:39.720Z,52.58
2023-11-29T07:40:10.249Z,52.46
2023-11-29T07:42:38.601Z,52.81
2023-11-29T07:45:10.348Z,52.69
2023-11-29T07:47:38.851Z,52.71
2023-11-29T07:50:08.897Z,52.73
2023-11-29T07:52:38.086Z,53.03
2023-11-29T07:55:08.287Z,52.77
2023-11-29T07:57:36.982Z,53.20
2023-11-29T08:00:08.480Z,53.20
2023-11-29T08:02:37.326Z,53.46
2023-11-29T08:05:06.800Z,53.12
2023-11-29T08:07:35.134Z,53.29
2023-11-29T08:10:04.216Z,53.05
2023-11-29T08:12:35.329Z,53.12
2023-11-29T08:15:04.041Z,52.98
2023-11-29T08:17:34.478Z,53.34
2023-11-29T08:20:03.057Z,53.18
2023-11-29T08:22:31.357Z,52.86
2023-11-29T08:24:59.738Z,52.73
2023-11-29T08:27:28.004Z,52.73
2023-11-29T08:29:56.699Z,52.77
2023-11-29T08:32:25.883Z,52.49
2023-11-29T08:34:55.874Z,52.40
2023-11-29T08:37:24.249Z,52.27
2023-11-29T08:39:54.723Z,51.97
2023-11-29T08:42:23.240Z,52.34
2023-11-29T08:44:52.149Z,52.20
2023-11-29T08:47:20.622Z,52.21
2023-11-29T08:49:48.964Z,52.07
2023-11-29T08:52:22.592Z,52.04
2023-11-29T08:54:54.491Z,52.11
2023-11-29T08:57:26.550Z,51.57
2023-11-29T08:59:55.131Z,51.53
2023-11-29T09:02:25.413Z,51.85
2023-11-29T09:04:53.983Z,51.76
2023-11-29T09:07:24.267Z,52.15
2023-11-29T09:09:52.571Z,52.34
2023-11-29T09:12:22.466Z,51.85
2023-11-29T09:14:50.932Z,52.20
2023-11-29T09:17:19.515Z,52.08
2023-11-29T09:19:47.821Z,51.86
2023-11-29T09:22:19.664Z,51.80
2023-11-29T09:24:49.524Z,51.80
2023-11-29T09:27:17.835Z,52.43
2023-11-29T09:29:47.034Z,52.44
2023-11-29T09:32:15.550Z,52.56
2023-11-29T09:34:43.891Z,52.99
2023-11-29T09:37:12.251Z,53.15
2023-11-29T09:39:40.576Z,53.08
2023-11-29T09:42:10.606Z,52.15
2023-11-29T09:44:41.809Z,52.22
2023-11-29T09:47:10.641Z,52.57
2023-11-29T09:49:39.632Z,52.32
2023-11-29T09:52:08.460Z,51.12
2023-11-29T09:54:37.237Z,50.66
2023-11-29T09:57:06.125Z,50.56
2023-11-29T09:59:35.911Z,50.49
2023-11-29T10:02:06.607Z,50.07
2023-11-29T10:04:41.180Z,49.71
2023-11-29T10:07:11.150Z,49.58
2023-11-29T10:09:39.979Z,49.92
2023-11-29T10:12:14.701Z,50.15
2023-11-29T10:14:44.542Z,50.29
2023-11-29T10:17:18.201Z,50.41
2023-11-29T10:19:47.683Z,50.50
2023-11-29T10:22:17.296Z,50.03
2023-11-29T10:24:46.757Z,50.31
2023-11-29T10:27:15.326Z,50.36
2023-11-29T10:29:45.895Z,50.00
2023-11-29T10:32:20.105Z,50.41
2023-11-29T10:34:51.589Z,49.97
2023-11-29T10:37:20.773Z,50.42
2023-11-29T10:39:51.765Z,50.20
2023-11-29T10:42:20.115Z,49.63
2023-11-29T10:44:50.454Z,50.04
2023-11-29T10:47:36.110Z,50.14
2023-11-29T10:50:09.957Z,49.87
2023-11-29T10:52:38.337Z,50.00
2023-11-29T10:55:08.486Z,49.78
2023-11-29T10:57:45.868Z,49.95
2023-11-29T11:00:18.016Z,49.96
2023-11-29T11:02:47.938Z,50.18
2023-11-29T11:05:19.518Z,49.83
2023-11-29T11:07:48.692Z,49.98
2023-11-29T11:10:20.475Z,49.90
2023-11-29T11:12:48.847Z,50.34
2023-11-29T11:15:22.479Z,49.92
2023-11-29T11:18:25.559Z,50.24
2023-11-29T11:20:57.615Z,50.33
2023-11-29T11:23:29.062Z,50.38
2023-11-29T11:25:59.305Z,50.50
2023-11-29T11:28:33.387Z,50.25
2023-11-29T11:31:09.866Z,50.26
2023-11-29T11:34:14.172Z,50.20
2023-11-29T11:36:46.438Z,50.16
2023-11-29T11:39:14.816Z,50.50
2023-11-29T11:41:43.198Z,50.18
2023-11-29T11:44:12.572Z,50.20
2023-11-29T11:46:42.420Z,50.29
2023-11-29T11:49:10.896Z,50.25
2023-11-29T11:51:39.341Z,50.49
2023-11-29T11:54:07.854Z,50.52
2023-11-29T11:56:36.296Z,50.43
2023-11-29T11:59:04.825Z,50.33
2023-11-29T12:01:34.813Z,50.39
2023-11-29T12:04:06.740Z,50.27
2023-11-29T12:06:35.266Z,50.30
2023-11-29T12:09:04.229Z,50.24
2023-11-29T12:11:33.209Z,50.58
2023-11-29T12:14:02.378Z,50.30
2023-11-29T12:16:30.743Z,50.34
2023-11-29T12:18:59.335Z,50.54
2023-11-29T12:21:30.860Z,50.23
2023-11-29T12:24:06.424Z,50.35
2023-11-29T12:26:37.947Z,50.61
2023-11-29T12:29:07.454Z,50.65
2023-11-29T12:31:37.577Z,50.25
2023-11-29T12:34:06.336Z,50.19
2023-11-29T12:36:36.081Z,50.44
2023-11-29T12:39:05.804Z,50.18
2023-11-29T12:41:34.291Z,50.53
2023-11-29T12:44:02.627Z,50.14
2023-11-29T12:46:31.124Z,50.35
2023-11-29T12:48:59.545Z,50.36
2023-11-29T12:51:28.327Z,50.33
2023-11-29T12:54:08.975Z,50.49
2023-11-29T12:56:41.802Z,49.83
2023-11-29T12:59:11.677Z,49.75
2023-11-29T13:01:40.489Z,50.03
2023-11-29T13:04:09.114Z,49.75
2023-11-29T13:06:37.785Z,50.00
2023-11-29T13:09:07.551Z,49.68
2023-11-29T13:11:36.057Z,49.88
2023-11-29T13:14:04.980Z,50.04
2023-11-29T13:16:33.350Z,50.00
2023-11-29T13:19:01.801Z,49.75
2023-11-29T13:21:33.619Z,49.59
2023-11-29T13:24:02.064Z,49.43
2023-11-29T13:26:31.794Z,49.20
2023-11-29T13:29:00.106Z,49.41
2023-11-29T13:31:28.655Z,49.58
2023-11-29T13:33:59.176Z,49.17
2023-11-29T13:36:27.699Z,49.44
2023-11-29T13:38:56.367Z,49.42
2023-11-29T13:41:28.698Z,49.34
2023-11-29T13:43:58.698Z,49.62
2023-11-29T13:46:28.369Z,49.15
2023-11-29T13:48:56.820Z,49.39
2023-11-29T13:51:28.274Z,49.47
2023-11-29T13:53:56.719Z,49.71
2023-11-29T13:56:25.174Z,49.44
2023-11-29T13:58:53.799Z,49.38
2023-11-29T14:01:23.620Z,49.48
2023-11-29T14:03:52.249Z,49.42
2023-11-29T14:06:20.953Z,49.63
2023-11-29T14:08:49.286Z,49.69
2023-11-29T14:11:18.523Z,49.94
2023-11-29T14:13:47.196Z,49.99
2023-11-29T14:16:15.932Z,49.76
2023-11-29T14:18:45.755Z,50.24
2023-11-29T14:21:14.702Z,50.12
2023-11-29T14:23:43.299Z,50.21
2023-11-29T14:26:11.595Z,50.08
2023-11-29T14:28:40.480Z,50.13
2023-11-29T14:31:09.853Z,50.20
2023-11-29T14:33:38.338Z,50.14
2023-11-29T14:36:08.916Z,50.08
2023-11-29T14:38:37.289Z,50.07
2023-11-29T14:41:11.866Z,50.14
2023-11-29T14:43:41.440Z,50.30
2023-11-29T14:46:10.031Z,50.52
2023-11-29T14:48:38.713Z,50.39
2023-11-29T14:51:09.657Z,50.05
2023-11-29T14:53:37.937Z,50.45
2023-11-29T14:56:07.869Z,50.33
2023-11-29T14:58:36.202Z,50.36
2023-11-29T15:01:04.841Z,50.28
2023-11-29T15:03:33.224Z,50.04
2023-11-29T15:06:01.696Z,50.16
2023-11-29T15:08:31.351Z,50.01
2023-11-29T15:10:59.898Z,50.25
2023-11-29T15:13:28.988Z,50.09
2023-11-29T15:15:57.350Z,50.10
2023-11-29T15:18:25.933Z,50.34
2023-11-29T15:20:54.603Z,50.28
2023-11-29T15:23:23.065Z,50.15
2023-11-29T15:25:52.815Z,50.56
2023-11-29T15:28:21.503Z,50.14
2023-11-29T15:30:49.817Z,50.33
2023-11-29T15:33:18.303Z,50.50
2023-11-29T15:35:46.699Z,50.55
2023-11-29T15:38:15.175Z,50.32
2023-11-29T15:40:46.314Z,50.17
2023-11-29T15:43:16.531Z,50.22
2023-11-29T15:45:45.087Z,50.38
2023-11-29T15:48:13.515Z,50.32
2023-11-29T15:50:42.076Z,50.27
2023-11-29T15:53:10.948Z,50.02
2023-11-29T15:55:39.832Z,50.08
2023-11-29T15:58:08.213Z,50.21
2023-11-29T16:00:37.976Z,50.50
2023-11-29T16:03:06.437Z,50.28
2023-11-29T16:05:35.248Z,50.61
2023-11-29T16:08:03.645Z,50.53
2023-11-29T16:10:32.068Z,50.84
2023-11-29T16:13:00.564Z,50.89
2023-11-29T16:15:29.220Z,50.59
2023-11-29T16:17:58.955Z,50.86
2023-11-29T16:20:27.375Z,50.77
2023-11-29T16:22:55.806Z,51.32
2023-11-29T16:25:24.275Z,51.29
2023-11-29T16:27:53.079Z,51.26
2023-11-29T16:30:21.810Z,51.49
2023-11-29T16:32:50.936Z,51.69
2023-11-29T16:35:20.753Z,51.78
2023-11-29T16:37:49.520Z,51.91
2023-11-29T16:40:18.933Z,52.00
2023-11-29T16:42:47.272Z,51.77
2023-11-29T16:45:16.128Z,51.98
2023-11-29T16:47:45.958Z,52.17
2023-11-29T16:50:14.506Z,52.48
2023-11-29T16:52:44.891Z,52.09
2023-11-29T16:55:13.452Z,52.07
2023-11-29T16:57:41.981Z,52.51
2023-11-29T17:00:11.684Z,52.42
2023-11-29T17:02:40.633Z,52.32
2023-11-29T17:05:10.173Z,52.51
2023-11-29T17:07:38.553Z,52.27
2023-11-29T17:10:10.001Z,52.49
2023-11-29T17:12:40.986Z,52.60
2023-11-29T17:15:10.466Z,52.31
2023-11-29T17:17:40.301Z,52.74
2023-11-29T17:20:09.925Z,52.57
2023-11-29T17:22:38.293Z,52.58
2023-11-29T17:25:08.836Z,52.61
2023-11-29T17:27:37.167Z,52.57
2023-11-29T17:30:07.559Z,52.70
2023-11-29T17:32:36.014Z,52.66
2023-11-29T17:35:04.977Z,52.30
2023-11-29T17:37:33.341Z,52.56
2023-11-29T17:40:01.692Z,52.24
2023-11-29T17:42:31.933Z,52.53
2023-11-29T17:45:00.395Z,52.51
2023-11-29T17:47:28.811Z,52.41
2023-11-29T17:49:57.154Z,52.43
2023-11-29T17:52:25.736Z,52.55
2023-11-29T17:54:54.083Z,52.45
2023-11-29T17:57:22.547Z,52.54
2023-11-29T17:59:53.901Z,52.47
2023-11-29T18:02:24.100Z,52.34
2023-11-29T18:04:52.764Z,52.23
2023-11-29T18:07:21.208Z,52.62
2023-11-29T18:09:49.568Z,52.29
2023-11-29T18:12:17.970Z,52.20
2023-11-29T18:14:46.305Z,52.34
2023-11-29T18:17:24.858Z,52.40
2023-11-29T18:19:53.192Z,52.01
2023-11-29T18:22:21.660Z,52.37
2023-11-29T18:24:49.984Z,52.21
2023-11-29T18:27:21.192Z,52.02
2023-11-29T18:29:49.582Z,52.36
2023-11-29T18:32:19.580Z,52.28
2023-11-29T18:34:50.323Z,52.11
2023-11-29T18:37:18.663Z,51.99
2023-11-29T18:39:46.968Z,51.94
2023-11-29T18:42:15.443Z,51.80
2023-11-29T18:44:44.012Z,52.16
2023-11-29T18:47:15.337Z,51.86
2023-11-29T18:49:46.024Z,52.04
2023-11-29T18:52:14.480Z,51.66
2023-11-29T18:54:42.773Z,51.99
2023-11-29T18:57:11.705Z,52.13
2023-11-29T18:59:42.620Z,52.20
2023-11-29T19:02:11.428Z,51.92
2023-11-29T19:04:42.424Z,51.81
2023-11-29T19:07:16.876Z,52.24
2023-11-29T19:09:45.217Z,51.97
2023-11-29T19:12:13.537Z,51.58
2023-11-29T19:14:42.088Z,52.09
2023-11-29T19:17:10.392Z,51.84
2023-11-29T19:19:39.162Z,51.74
2023-11-29T19:22:16.959Z,52.15
2023-11-29T19:24:46.748Z,51.90
2023-11-29T19:27:15.604Z,51.83
2023-11-29T19:29:44.130Z,52.07
2023-11-29T19:32:13.934Z,51.97
2023-11-29T19:34:42.513Z,51.84
2023-11-29T19:37:13.548Z,51.80
2023-11-29T19:39:45.060Z,51.87
2023-11-29T19:42:14.867Z,51.86
2023-11-29T19:44:45.043Z,51.97
2023-11-29T19:47:16.320Z,51.75
2023-11-29T19:49:45.895Z,51.55
2023-11-29T19:52:14.201Z,51.36
2023-11-29T19:54:42.684Z,51.80
2023-11-29T19:57:12.895Z,51.33
2023-11-29T19:59:42.625Z,51.76
2023-11-29T20:02:11.064Z,51.54
2023-11-29T20:04:39.487Z,51.56
2023-11-29T20:07:07.858Z,51.45
2023-11-29T20:09:36.408Z,51.64
2023-11-29T20:12:08.136Z,51.74
2023-11-29T20:17:07.039Z,51.76
2023-11-29T20:19:35.347Z,52.20
2023-11-29T20:22:12.846Z,52.06
2023-11-29T20:24:41.300Z,52.28
2023-11-29T20:27:09.855Z,51.99
2023-11-29T20:29:38.205Z,52.17
2023-11-29T20:32:08.843Z,52.27
2023-11-29T20:34:47.667Z,52.21
2023-11-29T20:37:25.630Z,52.46
2023-11-29T20:39:54.117Z,52.68
2023-11-29T20:42:22.607Z,52.40
2023-11-29T20:44:51.020Z,52.49
2023-11-29T20:47:20.891Z,52.31
2023-11-29T20:49:49.290Z,52.39
2023-11-29T20:52:17.583Z,52.50
2023-11-29T20:54:45.917Z,52.59
2023-11-29T20:57:14.283Z,52.80
2023-11-29T20:59:42.862Z,52.71
2023-11-29T21:02:11.218Z,52.90
2023-11-29T21:04:41.136Z,52.73
2023-11-29T21:07:10.693Z,52.57
2023-11-29T21:09:39.834Z,52.55
2023-11-29T21:12:10.633Z,52.89
2023-11-29T21:14:38.948Z,52.65
2023-11-29T21:17:08.002Z,52.65
2023-11-29T21:19:38.351Z,52.54
2023-11-29T21:22:08.422Z,52.69
2023-11-29T21:24:36.768Z,52.61
2023-11-29T21:27:05.861Z,52.59
2023-11-29T21:29:34.318Z,52.95
2023-11-29T21:32:02.949Z,52.63
2023-11-29T21:34:31.296Z,52.82
2023-11-29T21:36:59.804Z,52.78
2023-11-29T21:39:29.555Z,52.89
2023-11-29T21:41:57.983Z,52.85
2023-11-29T21:44:26.328Z,52.70
2023-11-29T21:46:55.431Z,52.57
2023-11-29T21:49:23.699Z,52.69
2023-11-29T21:51:52.059Z,52.64
2023-11-29T21:54:20.396Z,52.67
2023-11-29T21:56:50.238Z,52.47
2023-11-29T21:59:18.706Z,52.37
2023-11-29T22:01:53.683Z,52.60
2023-11-29T22:04:23.002Z,52.42
2023-11-29T22:06:54.760Z,52.29
2023-11-29T22:09:23.390Z,52.37
2023-11-29T22:11:53.217Z,52.23
2023-11-29T22:14:21.626Z,52.22
2023-11-29T22:16:49.981Z,52.44
2023-11-29T22:19:18.763Z,52.27
2023-11-29T22:21:47.082Z,52.44
2023-11-29T22:24:21.268Z,52.22
2023-11-29T22:26:55.353Z,52.25
2023-11-29T22:29:28.420Z,52.08
2023-11-29T22:31:57.834Z,51.94
2023-11-29T22:34:26.267Z,52.08
2023-11-29T22:36:54.637Z,52.04
2023-11-29T22:39:23.097Z,52.13
2023-11-29T22:41:52.347Z,52.01
2023-11-29T22:44:20.838Z,52.04
2023-11-29T22:46:50.592Z,51.64
2023-11-29T22:49:18.895Z,51.71
2023-11-29T22:51:50.109Z,51.67
2023-11-29T22:54:18.499Z,51.95
2023-11-29T22:56:46.898Z,51.67
2023-11-29T22:59:15.317Z,51.85
2023-11-29T23:01:43.895Z,51.78
2023-11-29T23:04:13.778Z,51.53
2023-11-29T23:06:43.876Z,51.76
2023-11-29T23:09:13.631Z,51.77
2023-11-29T23:11:44.870Z,51.58
2023-11-29T23:14:13.408Z,51.43
2023-11-29T23:16:41.876Z,51.44
2023-11-29T23:19:10.442Z,51.48
2023-11-29T23:21:40.443Z,51.72
2023-11-29T23:24:09.555Z,51.63
2023-11-29T23:26:37.884Z,51.59
2023-11-29T23:29:06.242Z,51.75
2023-11-29T23:31:34.617Z,51.61
2023-11-29T23:34:02.981Z,51.84
2023-11-29T23:36:31.541Z,51.82
2023-11-29T23:39:01.380Z,51.79
2023-11-29T23:41:29.703Z,51.83
2023-11-29T23:43:58.255Z,51.86
2023-11-29T23:46:26.666Z,51.75
2023-11-29T23:48:55.030Z,51.87
2023-11-29T23:51:23.459Z,51.86
2023-11-29T23:53:52.053Z,51.67
2023-11-29T23:56:22.117Z,51.67
2023-11-29T23:58:50.546Z,51.98
